»·PEaware :: N404KF KPUW-KYKM

N404KF :: KPUW-KYKM

FLIGHT INFORMATION

Flight Status: Arrived
Operator: Privately registered:
United States
More flights under this callsign
Pilot: Alex K. (14822)
Aircraft: CESSNA 404 TITAN
(C404)
More flights by this aircraft type
Origin: KPUW Pullman/Moscow Regl
United States
Destination: KYKM Yakima Air Term/Mcallister
United States
More flights between these airports :: More routes between these airports
Route: +PUW V536 RENGO V187 PSC V204 YKM
File this flight plan on PilotEdge
Remarks: https / / www.twitch.tv / knightmare_frame /
Altitude:
(Current/Filed)
10,000ft
Speed:
(Current/Filed)
200kts
Departed: 01-Nov-17 11:26 AM
Arrived: 01-Nov-17 12:23 PM
Distance/Time
Traveled:
142nm/0:57
Distance/Time
To Go:
Arrived

Flight Plot

Page will automatically refresh every two minutes.

Flight plan parsing failed; only flown route is shown


Map Options




Map Legend


Flown Route
Filed Route
Departure Airport
Arrival Airport
Navaid (VOR, NDB)
Fix

Horizontal Profiles

Position Reports

Time Latitude Longitude Heading Altitude Ground
Speed
01-Nov-17 11:26 46.741939 -117.119746 250 2547ft 0kts
01-Nov-17 11:27 46.741425 -117.121668 251 2547ft 0kts
01-Nov-17 11:28 46.741224 -117.121999 86 2546ft 7kts
01-Nov-17 11:29 46.743824 -117.112059 70 2547ft 33kts
01-Nov-17 11:30 46.746503 -117.101311 74 2547ft 35kts
01-Nov-17 11:31 46.745417 -117.103295 253 2549ft 84kts
01-Nov-17 11:32 46.735562 -117.145795 236 3868ft 101kts
01-Nov-17 11:33 46.720010 -117.173953 237 4832ft 114kts
01-Nov-17 11:34 46.700528 -117.208504 237 6284ft 108kts
01-Nov-17 11:35 46.681723 -117.241678 236 7459ft 107kts
01-Nov-17 11:36 46.662933 -117.274814 237 8569ft 107kts
01-Nov-17 11:37 46.643919 -117.308272 236 9573ft 111kts
01-Nov-17 11:38 46.622174 -117.346144 238 9979ft 143kts
01-Nov-17 11:39 46.593983 -117.395724 237 9966ft 168kts
01-Nov-17 11:40 46.563067 -117.450376 233 9965ft 182kts
01-Nov-17 11:41 46.530277 -117.507315 234 9964ft 184kts
01-Nov-17 11:42 46.497593 -117.564275 234 9963ft 184kts
01-Nov-17 11:43 46.464555 -117.621130 235 9962ft 184kts
01-Nov-17 11:44 46.432346 -117.677370 233 9965ft 184kts
01-Nov-17 11:45 46.399440 -117.734527 234 9967ft 185kts
01-Nov-17 11:46 46.366396 -117.791594 233 9938ft 185kts
01-Nov-17 11:47 46.336617 -117.850606 261 10006ft 181kts
01-Nov-17 11:48 46.332068 -117.921110 267 10012ft 174kts
01-Nov-17 11:49 46.328561 -117.990768 268 10017ft 173kts
01-Nov-17 11:50 46.325396 -118.060190 269 10021ft 172kts
01-Nov-17 11:51 46.322124 -118.129052 270 10019ft 171kts
01-Nov-17 11:52 46.318834 -118.197652 270 10018ft 171kts
01-Nov-17 11:53 46.315477 -118.266091 270 10018ft 171kts
01-Nov-17 11:54 46.312088 -118.334142 270 10018ft 170kts
01-Nov-17 11:55 46.308634 -118.402724 270 10018ft 170kts
01-Nov-17 11:56 46.305190 -118.470399 270 10017ft 170kts
01-Nov-17 11:57 46.301678 -118.538660 270 10017ft 170kts
01-Nov-17 11:58 46.298120 -118.607021 270 10017ft 170kts
01-Nov-17 11:59 46.294566 -118.674223 269 10021ft 171kts
01-Nov-17 12:00 46.290924 -118.742214 269 10021ft 171kts
01-Nov-17 12:01 46.287221 -118.810997 269 10020ft 171kts
01-Nov-17 12:02 46.283487 -118.879425 269 10020ft 171kts
01-Nov-17 12:03 46.279688 -118.948391 269 10020ft 171kts
01-Nov-17 12:04 46.275857 -119.016962 269 10019ft 171kts
01-Nov-17 12:05 46.271998 -119.085357 269 10019ft 171kts
01-Nov-17 12:06 46.278477 -119.151794 289 10019ft 168kts
01-Nov-17 12:07 46.293146 -119.215719 289 10018ft 168kts
01-Nov-17 12:08 46.307907 -119.279613 289 10018ft 168kts
01-Nov-17 12:09 46.322667 -119.343536 289 10018ft 168kts
01-Nov-17 12:10 46.337297 -119.407078 289 9995ft 169kts
01-Nov-17 12:11 46.351879 -119.470590 289 9990ft 168kts
01-Nov-17 12:12 46.366529 -119.534552 289 9989ft 168kts
01-Nov-17 12:13 46.381574 -119.599723 287 9991ft 178kts
01-Nov-17 12:14 46.397452 -119.670026 287 9993ft 188kts
01-Nov-17 12:15 46.412028 -119.734447 287 9992ft 190kts
01-Nov-17 12:16 46.428408 -119.806917 287 9990ft 190kts
01-Nov-17 12:17 46.445414 -119.882444 287 9166ft 212kts
01-Nov-17 12:18 46.463836 -119.964409 287 8190ft 216kts
01-Nov-17 12:19 46.479814 -120.044650 277 7911ft 198kts
01-Nov-17 12:20 46.486495 -120.123757 276 7538ft 207kts
01-Nov-17 12:21 46.493624 -120.208726 276 6560ft 214kts
01-Nov-17 12:22 46.503184 -120.284350 291 5377ft 152kts
01-Nov-17 12:23 46.516979 -120.338640 293 4027ft 140kts
01-Nov-17 12:24 46.529320 -120.387619 293 3353ft 127kts
01-Nov-17 12:25 46.541163 -120.434700 291 2438ft 119kts
01-Nov-17 12:26 46.552207 -120.478631 294 1882ft 115kts
01-Nov-17 12:27 46.563201 -120.522225 293 1229ft 114kts
01-Nov-17 12:28 46.569762 -120.548338 289 1072ft 19kts
01-Nov-17 12:29 46.571237 -120.547787 335 1071ft 5kts
01-Nov-17 12:30 46.571264 -120.548039 270 1071ft 0kts
01-Nov-17 12:31 46.571264 -120.548039 270 1071ft 0kts
01-Nov-17 12:32 46.571264 -120.548039 270 1071ft 0kts
01-Nov-17 12:33 46.571264 -120.548039 270 1071ft 0kts
01-Nov-17 12:34 46.571264 -120.548039 270 1071ft 0kts
01-Nov-17 12:35 46.571264 -120.548039 270 1071ft 0kts
01-Nov-17 12:36 46.571264 -120.548039 270 1071ft 0kts
01-Nov-17 12:37 46.571264 -120.548039 270 1071ft 0kts
01-Nov-17 12:38 46.571264 -120.548040 270 1071ft 0kts
01-Nov-17 12:39 46.571264 -120.548040 270 1071ft 0kts

Navigation Log

Ident Type
Flight plan parsing failed, navigation log unavailable